Weather observations for the past three days for
Columbia / Maury County
Imperial (Metric)
Date Time (cdt) Wind (mph) Vis. (mi.) Weather Sky Cond. Temperature (ºF) Relative Humidity Wind Chill (°F) Heat Index (°F) Pressure Precipitation (in)
Air Dwpt 6 hour altimeter (in) sea level (mb) 1 hr 3 hr 6 hr
Max. Min.
04 20:50 S 5 10.00 Partly Cloudy SCT070 68 46.4 46% 29.85 0.0
04 20:35 S 3 10.00 Partly Cloudy SCT070 68 46.4 46% 29.85 0.0
04 20:10 S 7 10.00 Partly Cloudy SCT070 68 44.6 43% 29.85 0.0
04 19:50 S 7 10.00 Fair CLR 69.8 44.6 40% 29.84 0.0
04 19:35 S 8 10.00 A Few Clouds FEW080 71.6 44.6 38% 29.84 0.0
04 19:10 SW 8 G 14 10.00 A Few Clouds FEW075 73.4 44.6 36% 29.84 0.0
04 18:55 SW 10 10.00 Fair CLR 75.2 44.6 34% 77 29.84 0.0
04 18:30 SW 15 10.00 Fair CLR 77 44.6 32% 78 29.84 0.0
04 18:10 SW 16 G 24 10.00 Fair CLR 77 44.6 32% 78 29.84 0.0
04 17:55 SW 15 G 22 10.00 Fair CLR 77 42.8 30% 78 29.84 0.0
04 17:30 SW 16 G 26 10.00 Fair CLR 78.8 42.8 28% 78 29.84 0.0
04 17:10 SW 13 G 26 10.00 Fair CLR 77 42.8 30% 78 29.84 0.0
04 16:55 SW 15 G 26 10.00 Fair CLR 78.8 44.6 30% 79 29.84 0.0
04 16:10 SW 18 G 25 10.00 Fair CLR 78.8 46.4 32% 79 29.84 0.0
04 15:55 SW 16 G 28 10.00 Fair CLR 78.8 46.4 32% 79 29.85 0.0
04 15:30 S 14 G 20 10.00 A Few Clouds FEW070 80.6 48.2 32% 80 29.85 0.0
04 15:10 SW 15 G 22 10.00 Fair CLR 80.6 48.2 32% 80 29.86 0.0
04 14:30 SW 15 10.00 Fair CLR 78.8 50 37% 79 29.88 0.0
04 14:10 S 12 G 22 10.00 Fair CLR 78.8 50 37% 79 29.89 0.0
04 13:55 SW 12 G 24 10.00 Fair CLR 78.8 48.2 34% 79 29.89 0.0
04 13:30 SW 17 10.00 A Few Clouds FEW065 78.8 50 37% 79 29.89 0.0
04 13:10 SW 15 G 22 10.00 A Few Clouds FEW065 78.8 50 37% 79 29.9 0.0
04 12:55 SW 16 10.00 Fair CLR 78.8 50 37% 79 29.9 0.0
04 12:30 W 10 G 18 10.00 Fair CLR 77 48.2 36% 78 29.91 0.0
04 12:10 SW 15 G 23 10.00 Fair CLR 77 48.2 36% 78 29.92 0.0
04 11:55 SW 12 G 17 10.00 Fair CLR 77 51.8 42% 78 29.93 0.0
04 11:30 SW 12 G 18 10.00 Fair CLR 75.2 51.8 44% 78 29.94 0.0
04 11:10 SW 10 G 21 10.00 Fair CLR 73.4 51.8 47% 29.95 0.0
04 10:55 SW 14 G 21 10.00 Fair CLR 73.4 51.8 47% 29.95 0.0
04 10:30 SW 15 10.00 Fair CLR 71.6 50 47% 29.95 0.0
04 10:10 SW 16 G 22 10.00 Fair CLR 71.6 50 47% 29.95 0.0
04 09:55 SW 14 10.00 Fair CLR 69.8 50 50% 29.95 0.0
04 09:30 SW 16 10.00 Fair CLR 69.8 50 50% 29.96 0.0
04 09:10 SW 14 10.00 Fair CLR 68 48.2 49% 29.96 0.0
04 08:55 SW 15 10.00 Fair CLR 66.2 48.2 52% 29.96 0.0
04 08:30 S 13 10.00 Fair CLR 62.6 46.4 56% 29.97 0.0
04 08:10 SW 12 10.00 Fair CLR 60.8 46.4 59% 29.97 0.0
04 07:55 SW 9 10.00 Fair CLR 59 46.4 63% 29.97 0.0
04 07:30 SW 9 10.00 Fair CLR 57.2 46.4 67% 29.97 0.0
04 07:10 SW 8 10.00 Fair CLR 57.2 46.4 67% 29.97 0.0
04 06:55 SW 7 10.00 Fair CLR 55.4 44.6 67% 29.96 0.0
04 06:30 SW 7 G 13 10.00 Fair CLR 53.6 44.6 72% 29.96 0.0
04 06:10 SW 8 10.00 Fair CLR 53.6 44.6 72% 29.95 0.0
04 05:55 SW 5 10.00 Fair CLR 53.6 44.6 72% 29.95 0.0
04 05:30 S 5 10.00 Fair CLR 53.6 44.6 72% 29.94 0.0
04 05:10 S 3 10.00 Fair CLR 53.6 44.6 72% 29.95 0.0
04 04:55 Calm 10.00 Fair CLR 53.6 44.6 72% 29.95 0.0
04 04:30 Calm 10.00 Fair CLR 53.6 44.6 72% 29.95 0.0
04 04:10 Calm 10.00 Fair CLR 53.6 44.6 72% 29.95 0.0
04 03:55 S 3 10.00 Fair CLR 53.6 44.6 72% 29.95 0.0
04 03:30 S 6 10.00 Fair CLR 53.6 42.8 67% 29.95 0.0
04 03:10 SW 7 10.00 Fair CLR 53.6 42.8 67% 29.95 0.0
04 02:55 SW 6 10.00 Fair CLR 55.4 42.8 63% 29.96 0.0
04 02:30 Vrbl 3 10.00 Fair CLR 55.4 42.8 63% 29.96 0.0
04 02:10 SW 10 10.00 Fair CLR 53.6 44.6 72% 29.96 0.0
04 01:50 SW 3 10.00 Fair CLR 51.8 44.6 77% 29.97 0.0
04 01:35 Calm 10.00 Fair CLR 53.6 42.8 67% 29.97 0.0
04 01:10 Calm 10.00 Fair CLR 53.6 44.6 72% 29.98 0.0
04 00:35 Calm 10.00 Fair CLR 51.8 44.6 77% 29.99 0.0
04 00:10 Calm 10.00 Fair CLR 51.8 44.6 77% 29.99 0.0
03 23:50 Calm 10.00 Fair CLR 53.6 42.8 67% 29.99 0.0
03 23:25 S 6 10.00 Fair CLR 55.4 42.8 63% 29.99 0.0
03 23:10 SW 7 10.00 Fair CLR 55.4 41 59% 29.99 0.0
03 22:50 SW 6 10.00 Fair CLR 55.4 42.8 63% 30 0.0
03 22:35 S 9 10.00 Fair CLR 55.4 42.8 63% 29.99 0.0
03 22:10 SW 6 10.00 Fair CLR 53.6 42.8 67% 30 0.0
03 21:50 SW 3 10.00 Fair CLR 51.8 48.2 88% 30 0.0
03 21:35 SW 5 10.00 Fair CLR 51.8 46.4 82% 30.01 0.0
03 21:10 Calm 10.00 Fair CLR 53.6 46.4 77% 30 0.0
03 20:50 S 3 10.00 Fair CLR 55.4 42.8 63% 30 0.0
03 20:35 Calm 10.00 Fair CLR 55.4 41 59% 29.99 0.0
03 20:10 SE 3 10.00 Fair CLR 57.2 42.8 59% 29.99 0.0
03 19:50 Calm 10.00 Fair CLR 59 41 51% 29.99 0.0
03 19:35 S 3 10.00 Fair CLR 62.6 37.4 39% 29.99 0.0
03 19:10 Calm 10.00 Fair CLR 66.2 33.8 30% 30 0.0
03 18:50 W 5 10.00 Fair CLR 66.2 33.8 30% 29.99 0.0
03 18:30 SW 7 10.00 Fair CLR 68 32 26% 29.99 0.0
03 18:10 SW 9 10.00 Fair CLR 68 32 26% 30 0.0
03 17:50 W 8 10.00 Fair CLR 69.8 32 25% 30.01 0.0
03 17:30 SW 6 G 12 10.00 Fair CLR 69.8 32 25% 30.01 0.0
03 17:10 Vrbl 5 G 14 10.00 Fair CLR 69.8 32 25% 30.02 0.0
03 16:50 Vrbl 6 G 16 10.00 Fair CLR 69.8 30.2 23% 30.03 0.0
03 16:30 W 8 G 15 10.00 Fair CLR 69.8 30.2 23% 30.03 0.0
03 16:10 W 8 G 14 10.00 Fair CLR 69.8 33.8 27% 30.04 0.0
03 15:45 Vrbl 6 G 12 10.00 Fair CLR 69.8 33.8 27% 30.05 0.0
03 15:30 Calm 10.00 Fair CLR 69.8 32 25% 30.06 0.0
03 15:10 W 8 10.00 Fair CLR 69.8 32 25% 30.07 0.0
03 14:50 Vrbl 7 G 14 10.00 Fair CLR 69.8 32 25% 30.08 0.0
03 14:30 W 7 G 21 10.00 Fair CLR 68 32 26% 30.09 0.0
03 14:10 Vrbl 6 G 13 10.00 Fair CLR 66.2 30.2 26% 30.1 0.0
03 13:50 Calm 9.00 Fair CLR 66.2 32 28% 30.11 0.0
03 13:30 Calm 10.00 Fair CLR 66.2 32 28% 30.12 0.0
03 13:05 NW 6 G 12 10.00 Fair CLR 64.4 30.2 28% 30.13 0.0
03 12:50 Vrbl 3 10.00 Fair CLR 64.4 30.2 28% 30.13 0.0
03 12:30 Calm 10.00 Fair CLR 62.6 30.2 30% 30.14 0.0
03 12:10 SE 3 10.00 Fair CLR 62.6 30.2 30% 30.15 0.0
03 11:50 Calm 10.00 Fair CLR 60.8 26.6 27% 30.15 0.0
03 11:30 Calm 10.00 Fair CLR 59 28.4 31% 30.16 0.0
03 11:10 Calm 10.00 Fair CLR 59 30.2 34% 30.16 0.0
03 10:50 N 5 10.00 Fair CLR 59 32 36% 30.17 0.0
03 10:20 Calm 10.00 Fair CLR 57.2 32 39% 30.18 0.0
03 10:10 Vrbl 5 10.00 Fair CLR 57.2 33.8 41% 30.18 0.0
03 09:50 SW 3 10.00 Fair CLR 57.2 35.6 44% 30.18 0.0
03 09:30 Calm 10.00 Fair CLR 55.4 41 59% 30.18 0.0
03 09:10 Calm 10.00 Fair CLR 51.8 51.8 100% 30.17 0.0
03 08:50 Calm 10.00 Fair CLR 48.2 48.2 100% 30.17 0.0
03 08:30 Calm 8.00 A Few Clouds FEW002 46.4 46.4 100% 30.17 0.0
03 08:10 Calm 0.75 Fog/Mist OVC002 44.6 44.6 100% 30.18 0.0
03 07:50 Calm 0.15 Fog OVC002 42.8 42.8 100% 30.17 0.0
03 07:30 Calm 0.15 Fog OVC002 42.8 42.8 100% 30.17 0.0
03 07:10 Calm 0.15 Fog OVC002 41 41 100% 30.16 0.0
03 06:45 Calm 0.15 Fog OVC002 39.2 39.2 100% 30.16 0.0
03 06:30 Calm 0.15 Fog OVC002 39.2 39.2 100% 30.15 0.0
03 06:10 Calm 6.00 Fog/Mist FEW002 39.2 39.2 100% 30.14 0.0
03 05:50 Calm 0.15 Fog OVC001 39.2 39.2 100% 30.14 0.0
03 05:30 Calm 0.15 Fog OVC001 41 41 100% 30.13 0.0
03 05:10 Calm 0.15 Fog OVC001 41 41 100% 30.13 0.0
03 04:30 Calm 0.15 Fog OVC001 39.2 39.2 100% 30.13 0.0
03 04:05 Calm 0.25 Fog OVC001 39.2 39.2 100% 30.13 0.0
03 03:50 Calm 7.00 Partly Cloudy SCT002 39.2 39.2 100% 30.13 0.0
03 03:30 SW 3 10.00 Fair CLR 39.2 39.2 100% 30.13 0.0
03 03:10 SW 3 7.00 Fair CLR 41 39.2 93% 30.12 0.0
03 02:50 Calm 9.00 Fair CLR 41 41 100% 30.11 0.0
03 02:30 Calm 8.00 Fair CLR 41 41 100% 30.11 0.0
03 02:10 Calm 8.00 Fair CLR 41 41 100% 30.11 0.0
03 01:50 Calm 9.00 Fair CLR 41 41 100% 30.11 0.0
03 01:35 Calm 10.00 Fair CLR 42.8 42.8 100% 30.12 0.0
03 01:10 Calm 10.00 Fair CLR 42.8 42.8 100% 30.12 0.0
03 00:50 Calm 10.00 Fair CLR 44.6 44.6 100% 30.12 0.0
03 00:35 Calm 10.00 Fair CLR 44.6 44.6 100% 30.12 0.0
03 00:10 Calm 10.00 Fair CLR 44.6 44.6 100% 30.11 0.0
02 23:50 Calm 10.00 Fair CLR 44.6 44.6 100% 30.11 0.0
02 23:35 Calm 10.00 Fair CLR 44.6 44.6 100% 30.11 0.0
02 23:10 Calm 10.00 Fair CLR 46.4 46.4 100% 30.1 0.0
02 22:50 Calm 10.00 Fair CLR 46.4 46.4 100% 30.1 0.0
02 22:35 Calm 10.00 Fair CLR 48.2 46.4 94% 30.1 0.0
02 22:10 Calm 10.00 Fair CLR 50 44.6 82% 30.1 0.0
02 21:50 Calm 10.00 Fair CLR 50 44.6 82% 30.09 0.0
02 21:35 Calm 10.00 Fair CLR 50 44.6 82% 30.09 0.0
02 21:10 Calm 10.00 Fair CLR 51.8 44.6 77% 30.08 0.0
02 20:50 Vrbl 6 10.00 Fair CLR 51.8 44.6 77% 30.08 0.0
02 20:35 N 6 10.00 Fair CLR 51.8 44.6 77% 30.07 0.0
02 20:10 N 8 10.00 Fair CLR 53.6 44.6 72% 30.06 0.0
02 19:50 Vrbl 3 10.00 Fair CLR 53.6 46.4 77% 30.05 0.0
02 19:35 N 5 10.00 A Few Clouds FEW095 53.6 46.4 77% 30.04 0.0
02 19:10 Vrbl 6 G 13 9.00 Mostly Cloudy FEW050 SCT065 BKN095 53.6 48.2 82% 30.03 0.0
02 18:50 N 9 G 23 10.00 Partly Cloudy SCT060 SCT075 59 39.2 48% 30.01 0.0
02 18:30 N 6 10.00 Fair CLR 62.6 37.4 39% 29.99 0.0
02 18:10 N 7 10.00 Fair CLR 64.4 37.4 37% 29.99 0.0
02 17:50 Vrbl 5 10.00 Partly Cloudy SCT075 64.4 37.4 37% 29.98 0.0
02 17:30 NW 7 10.00 Partly Cloudy FEW080 SCT110 64.4 37.4 37% 29.99 0.0
02 17:10 Vrbl 5 10.00 A Few Clouds FEW110 62.6 37.4 39% 29.99 0.0
02 16:50 N 5 10.00 A Few Clouds FEW090 62.6 37.4 39% 29.98 0.0
02 16:20 NW 8 9.00 A Few Clouds FEW070 FEW120 64.4 35.6 34% 29.98 0.0
02 16:10 SW 8 G 16 8.00 A Few Clouds FEW070 62.6 35.6 37% 29.98 0.0
02 15:50 Vrbl 5 10.00 Fair CLR 66.2 32 28% 29.97 0.0
02 15:30 Vrbl 3 G 12 10.00 Fair CLR 66.2 32 28% 29.97 0.0
02 15:10 Vrbl 5 10.00 A Few Clouds FEW070 FEW100 64.4 32 30% 29.98 0.0
02 14:50 Vrbl 5 G 12 10.00 A Few Clouds FEW100 64.4 32 30% 29.99 0.0
02 14:30 NW 6 10.00 A Few Clouds FEW100 64.4 32 30% 30 0.0
02 14:10 Vrbl 6 G 13 10.00 A Few Clouds FEW100 64.4 30.2 28% 30 0.0
02 13:50 Vrbl 5 10.00 Partly Cloudy FEW070 FEW080 SCT095 64.4 33.8 32% 30.01 0.0
02 13:30 Vrbl 5 G 13 10.00 Mostly Cloudy SCT070 BKN090 64.4 32 30% 30.01 0.0
02 13:10 NW 8 10.00 Partly Cloudy SCT065 SCT085 64.4 32 30% 30.01 0.0
02 12:45 NW 7 G 15 10.00 Fair CLR 66.2 32 28% 30.02 0.0
02 12:30 NW 8 10.00 Fair CLR 66.2 32 28% 30.02 0.0
02 12:10 NW 7 10.00 Fair CLR 64.4 32 30% 30.02 0.0
02 11:50 Vrbl 7 G 14 10.00 Fair CLR 64.4 32 30% 30.03 0.0
02 11:30 Vrbl 6 G 13 10.00 Fair CLR 62.6 32 32% 30.03 0.0
02 11:10 NW 8 10.00 Fair CLR 62.6 33.8 34% 30.04 0.0
02 10:50 Vrbl 5 10.00 Fair CLR 62.6 33.8 34% 30.04 0.0
02 10:30 Vrbl 6 10.00 Fair CLR 60.8 33.8 36% 30.04 0.0
02 10:05 N 6 10.00 Fair CLR 60.8 33.8 36% 30.04 0.0
02 09:50 Vrbl 6 G 12 10.00 Fair CLR 59 33.8 39% 30.04 0.0
02 09:30 Vrbl 6 10.00 Fair CLR 57.2 35.6 44% 30.04 0.0
02 09:10 Vrbl 6 10.00 Fair CLR 57.2 37.4 48% 30.03 0.0
02 08:50 Calm 10.00 Fair CLR 55.4 39.2 55% 30.03 0.0
02 08:30 Calm 10.00 Fair CLR 53.6 41 63% 30.03 0.0
02 08:10 Calm 10.00 Fair CLR 51.8 41 67% 30.03 0.0
02 07:50 Calm 10.00 Fair CLR 50 42.8 76% 30.02 0.0
02 07:20 Calm 10.00 Fair CLR 48.2 42.8 82% 30.02 0.0
02 07:10 Calm 10.00 Fair CLR 46.4 42.8 87% 30.01 0.0
02 06:50 Calm 10.00 Fair CLR 46.4 42.8 87% 30.01 0.0
02 06:30 Calm 10.00 Fair CLR 44.6 42.8 93% 30.01 0.0
02 06:10 Calm 10.00 Fair CLR 44.6 42.8 93% 30 0.0
02 05:50 Calm 10.00 Fair CLR 44.6 44.6 100% 30 0.0
02 05:30 Calm 10.00 Fair CLR 44.6 44.6 100% 29.99 0.0
02 05:10 Calm 10.00 Fair CLR 44.6 41 87% 29.99 0.0
02 04:50 Calm 10.00 Fair CLR 44.6 42.8 93% 30 0.0
02 04:30 Calm 10.00 Fair CLR 44.6 42.8 93% 29.99 0.0
02 04:10 Calm 10.00 Fair CLR 46.4 41 82% 29.99 0.0
02 03:45 Calm 10.00 Fair CLR 46.4 41 82% 29.99 0.0
02 03:30 Calm 10.00 Fair CLR 46.4 41 82% 29.99 0.0
02 03:10 N 3 10.00 Fair CLR 46.4 39.2 76% 29.99 0.0
02 02:50 Calm 10.00 Fair CLR 48.2 39.2 71% 29.99 0.0
02 02:30 Calm 10.00 Fair CLR 50 37.4 62% 30 0.0
02 02:10 Calm 10.00 Fair CLR 50 37.4 62% 30 0.0
02 01:50 Calm 10.00 Fair CLR 50 41 71% 30.01 0.0
02 01:35 Calm 10.00 Fair CLR 50 39.2 67% 30.01 0.0
02 01:10 Calm 10.00 Fair CLR 50 37.4 62% 30.01 0.0
02 00:50 N 3 10.00 Fair CLR 51.8 35.6 54% 30.02 0.0
02 00:35 N 3 10.00 Fair CLR 51.8 33.8 50% 30.01 0.0
02 00:10 Calm 10.00 Fair CLR 51.8 33.8 50% 30.01 0.0
01 23:50 Vrbl 3 10.00 Fair CLR 53.6 33.8 47% 30 0.0
01 23:35 N 5 10.00 Fair CLR 53.6 33.8 47% 30 0.0
01 23:10 Vrbl 7 10.00 Fair CLR 55.4 32 41% 30 0.0
01 22:50 N 7 10.00 Fair CLR 55.4 32 41% 30 0.0
01 22:35 N 6 10.00 Fair CLR 55.4 32 41% 30 0.0
01 22:10 N 5 10.00 Fair CLR 55.4 30.2 38% 30.02 0.0
01 21:50 N 5 10.00 Fair CLR 55.4 30.2 38% 30.02 0.0
01 21:35 Vrbl 5 10.00 Fair CLR 55.4 30.2 38% 30.01 0.0
Date Time (cdt) Wind (mph) Vis. (mi.) Weather Sky Cond. Air Dwpt Max. Min. Relative Humidity Wind Chill (°F) Heat Index (°F) altimeter (in) sea level (mb) 1 hr 3 hr 6 hr
6 hour
Temperature (ºF) Pressure Precipitation (in)